Data for 06/09/2014

Time Sea-Level Adjusted Pressure Absolute Pressure Temperature Relative Humidity Dew Point   
(mb) (inHg) (mb) (inHg) (C) (F) (%) (C) (F)
00:05 1019 30.09 849 25.07 10.4 50.7 47 -0.5 31.2
00:10 1019 30.09 849 25.07 10.4 50.6 47 -0.4 31.3
00:15 1019 30.09 849 25.07 10.4 50.6 46 -0.6 30.9
00:20 1019 30.09 849 25.07 10.4 50.7 47 -0.4 31.3
00:25 1019 30.09 849 25.07 10.3 50.6 46 -0.8 30.6
00:30 1019 30.09 849 25.07 10.4 50.7 46 -0.5 31
00:35 1019 30.09 849 25.07 10.3 50.5 46 -0.7 30.7
00:40 1019 30.09 849 25.07 10.3 50.5 47 -0.6 31
00:45 1019 30.09 849 25.07 10.2 50.4 47 -0.6 30.8
00:50 1019 30.09 849 25.07 10.1 50.2 48 -0.4 31.2
00:55 1019 30.09 849 25.07 10 49.9 47 -0.7 30.8
01:00 1019 30.09 848 25.04 10.1 50.1 47 -0.6 30.9
01:05 1019 30.09 848 25.04 10.2 50.4 47 -0.6 30.8
01:10 1019 30.09 848 25.04 10.1 50.2 47 -0.6 30.9
01:15 1019 30.09 848 25.04 9.9 49.8 49 -0.4 31.2
01:20 1019 30.09 848 25.04 9.7 49.5 48 -0.6 30.8
01:25 1019 30.09 848 25.04 9.8 49.7 47 -0.8 30.6
01:30 1019 30.09 848 25.04 10 49.9 47 -0.8 30.5
01:35 1019 30.09 848 25.04 10.1 50.2 47 -0.7 30.7
01:40 1019 30.09 848 25.04 10 50 47 -0.6 30.9
01:45 1019 30.09 848 25.04 9.8 49.7 49 -0.4 31.2
01:50 1019 30.09 848 25.04 9.6 49.2 50 -0.4 31.3
01:55 1019 30.09 848 25.04 9.5 49.1 50 -0.5 31.2
02:00 1019 30.09 848 25.04 9.6 49.2 48 -0.8 30.6
02:05 1019 30.09 848 25.04 9.7 49.5 48 -0.8 30.6
02:10 1019 30.09 848 25.04 10.2 50.3 44 -1.5 29.2
02:15 1019 30.09 848 25.04 10.7 51.2 43 -1.4 29.5
02:20 1019 30.09 848 25.04 10.6 51.1 44 -1.1 30.1
02:25 1019 30.09 848 25.04 10.4 50.8 45 -1 30.2
02:30 1019 30.09 848 25.04 10.4 50.8 45 -1.1 30.1
02:35 1019 30.09 848 25.04 10.4 50.7 45 -1 30.2
02:40 1019 30.09 848 25.04 10.3 50.5 47 -0.6 30.9
02:45 1019 30.09 848 25.04 9.9 49.9 48 -0.6 31
02:50 1019 30.09 848 25.04 9.8 49.6 48 -0.6 30.9
02:55 1019 30.09 848 25.04 9.5 49.1 49 -0.5 31.1
03:00 1019 30.09 848 25.04 9.2 48.5 50 -0.6 30.9
03:05 1019 30.09 848 25.04 9.2 48.5 49 -0.8 30.5
03:10 1019 30.09 848 25.04 9.4 49 48 -1.1 30
03:15 1019 30.09 848 25.04 9.5 49.1 51 -0.2 31.7
03:20 1019 30.09 848 25.04 9.1 48.3 50 -0.8 30.6
03:25 1019 30.09 848 25.04 9.1 48.4 51 -0.4 31.2
03:30 1019 30.09 848 25.04 8.7 47.7 52 -0.6 30.9
03:35 1019 30.09 848 25.04 8.9 48.1 50 -1 30.3
03:40 1019 30.09 848 25.04 9.3 48.7 51 -0.4 31.3
03:45 1019 30.09 848 25.04 9 48.3 51 -0.4 31.3
03:50 1019 30.09 848 25.04 8.8 47.8 52 -0.6 31
03:55 1019 30.09 848 25.04 8.7 47.6 52 -0.7 30.8
04:00 1019 30.09 848 25.04 8.8 47.8 51 -0.9 30.4
04:05 1019 30.09 848 25.04 8.7 47.6 53 -0.4 31.2
04:10 1019 30.09 848 25.04 8.9 47.9 49 -1.3 29.6
04:15 1019 30.09 848 25.04 9.5 49 49 -0.6 30.9
04:20 1019 30.09 848 25.04 9.1 48.3 49 -1.2 29.9
04:25 1019 30.09 848 25.04 9.2 48.5 51 -0.5 31.1
04:30 1019 30.09 848 25.04 8.5 47.2 52 -0.8 30.6
04:35 1019 30.09 848 25.04 8.3 46.9 52 -0.9 30.4
04:40 1019 30.09 848 25.04 8.3 46.9 52 -0.9 30.4
04:45 1019 30.09 848 25.04 8.2 46.8 53 -0.7 30.7
04:50 1019 30.09 848 25.04 8.2 46.8 53 -0.8 30.6
04:55 1018 30.06 848 25.04 8.3 47 53 -0.7 30.7
05:00 1018 30.06 848 25.04 8.2 46.7 54 -0.5 31.1
05:05 1018 30.06 848 25.04 7.9 46.3 55 -0.5 31.1
05:10 1018 30.06 848 25.04 7.8 46 56 -0.6 31
05:15 1018 30.06 848 25.04 7.8 46 56 -0.5 31.1
05:20 1018 30.06 848 25.04 7.9 46.1 55 -0.6 30.8
05:25 1018 30.06 848 25.04 8.1 46.7 54 -0.6 30.9
05:30 1018 30.06 848 25.04 8.3 46.9 54 -0.4 31.3
05:35 1018 30.06 848 25.04 8.3 47 54 -0.4 31.3
05:40 1018 30.06 848 25.04 8.6 47.4 53 -0.5 31.1
05:45 1018 30.06 848 25.04 8.7 47.6 54 -0.1 31.8
05:50 1018 30.06 848 25.04 8.7 47.7 54 -0.1 31.8
05:55 1018 30.06 848 25.04 8.9 48.1 53 -0.1 31.8
06:00 1018 30.06 848 25.04 9.2 48.6 52 -0.1 31.9
06:05 1018 30.06 847 25.01 9.4 49 53 0.3 32.6
06:10 1018 30.06 847 25.01 9.5 49.2 53 0.5 32.8
06:15 1018 30.06 847 25.01 9.8 49.6 53 0.7 33.3
06:20 1018 30.06 847 25.01 10 50 51 0.5 32.9
06:25 1018 30.06 847 25.01 10.4 50.7 49 0.3 32.5
06:30 1018 30.06 847 25.01 11 51.7 49 0.6 33.1
06:35 1018 30.06 847 25.01 11.5 52.7 48 0.9 33.6
06:40 1018 30.06 847 25.01 11.8 53.3 47 0.9 33.6
06:45 1018 30.06 847 25.01 12.4 54.2 44 0.4 32.7
06:50 1018 30.06 847 25.01 13.4 56.1 42 0.9 33.6
06:55 1018 30.06 847 25.01 13.5 56.2 43 1.3 34.3
07:00 1018 30.06 847 25.01 13.7 56.6 42 1 33.8
07:05 1018 30.06 847 25.01 14.1 57.3 41 1 33.9
07:10 1018 30.06 847 25.01 15 59 38 1 33.8
07:15 1018 30.06 847 25.01 15.1 59.2 40 1.7 35
07:20 1018 30.06 847 25.01 15.3 59.6 37 0.8 33.4
07:25 1018 30.06 847 25.01 15.9 60.5 34 0.1 32.1
07:30 1018 30.06 847 25.01 16.2 61.2 36 1.3 34.4
07:35 1018 30.06 847 25.01 16.5 61.6 33 0.2 32.3
07:40 1018 30.06 847 25.01 17 62.5 30 -0.4 31.3
07:45 1018 30.06 847 25.01 17.3 63.2 29 -0.9 30.5
07:50 1018 30.06 847 25.01 17.6 63.6 31 0.6 33
07:55 1018 30.06 847 25.01 18.3 64.9 30 0.4 32.7
08:00 1018 30.06 847 25.01 17.9 64.3 31 0.9 33.5
08:05 1018 30.06 847 25.01 17.8 64.1 32 1.2 34.1
08:10 1018 30.06 847 25.01 17.7 63.9 31 0.7 33.3
08:15 1018 30.06 847 25.01 18.2 64.7 29 0.1 32.2
08:20 1018 30.06 847 25.01 18.6 65.5 30 0.9 33.7
08:25 1018 30.06 847 25.01 18.7 65.6 29 0.6 33.1
08:30 1018 30.06 847 25.01 18.5 65.3 32 1.5 34.6
08:35 1018 30.06 847 25.01 18.5 65.3 30 0.8 33.4
08:40 1018 30.06 847 25.01 18.8 65.8 32 1.8 35.3
08:45 1017 30.03 847 25.01 18.2 64.7 31 1.1 34
08:50 1017 30.03 847 25.01 18.8 65.8 31 1.2 34.2
08:55 1017 30.03 847 25.01 19.4 66.8 31 1.8 35.3
09:00 1017 30.03 847 25.01 19.3 66.7 31 1.9 35.4
09:05 1017 30.03 847 25.01 19.3 66.8 33 2.8 37
09:10 1017 30.03 846 24.98 19.1 66.3 33 2.4 36.4
09:15 1017 30.03 846 24.98 19.1 66.4 31 1.9 35.4
09:20 1017 30.03 846 24.98 20 67.9 32 2.9 37.3
09:25 1017 30.03 846 24.98 20.4 68.7 32 3.3 38
09:30 1017 30.03 846 24.98 20.4 68.8 32 3.3 38
09:35 1017 30.03 846 24.98 20.5 68.9 32 3.3 37.9
09:40 1017 30.03 846 24.98 20 67.9 32 2.9 37.3
09:45 1017 30.03 846 24.98 21 69.8 28 2.1 35.8
09:50 1017 30.03 846 24.98 21.2 70.2 27 1.9 35.4
09:55 1017 30.03 846 24.98 21.7 71.1 26 1.7 35
10:00 1017 30.03 846 24.98 22.4 72.3 26 2.2 35.9
10:05 1017 30.03 846 24.98 22.2 72 26 1.9 35.4
10:10 1017 30.03 846 24.98 22.2 72 26 2 35.5
10:15 1017 30.03 846 24.98 22.6 72.6 26 2.5 36.5
10:20 1016 30 846 24.98 22.4 72.3 25 1.9 35.3
10:25 1016 30 846 24.98 22.4 72.3 25 1.5 34.8
10:30 1016 30 845 24.95 22.6 72.7 27 2.8 37.1
10:35 1016 30 845 24.95 23 73.3 25 2.2 35.9
10:40 1016 30 845 24.95 22.8 73 25 2 35.7
10:45 1016 30 845 24.95 22.5 72.5 27 2.7 36.8
10:50 1016 30 845 24.95 22.1 71.8 27 2.7 36.8
10:55 1016 30 845 24.95 22.4 72.4 26 2.3 36.1
11:00 1016 30 845 24.95 23.1 73.5 26 2.6 36.7
11:05 1016 30 845 24.95 23.3 73.9 24 1.9 35.4
11:10 1016 30 845 24.95 23.9 74.9 21 0.4 32.6
11:15 1015 29.97 845 24.95 23.4 74.1 22 0.9 33.6
11:20 1015 29.97 845 24.95 23.2 73.8 22 0.6 33
11:25 1015 29.97 845 24.95 23.2 73.8 22 0.3 32.6
11:30 1015 29.97 844 24.92 23.2 73.8 22 0.6 33.1
11:35 1015 29.97 844 24.92 23.8 74.9 21 0.6 33
11:40 1015 29.97 844 24.92 23.8 74.9 20 -0.2 31.7
11:45 1015 29.97 844 24.92 24 75.1 20 -0.2 31.7
11:50 1015 29.97 844 24.92 24 75.3 18 -1.9 28.6
11:55 1015 29.97 844 24.92 24.1 75.3 15 -4.2 24.4
12:00 1015 29.97 844 24.92 24.1 75.3 16 -3 26.5
12:05 1015 29.97 844 24.92 23.8 74.9 17 -2.7 27.2
12:10 1015 29.97 844 24.92 23.9 75 18 -1.6 29
12:15 1015 29.97 844 24.92 24.1 75.4 16 -3.1 26.4
12:20 1015 29.97 844 24.92 24.3 75.7 15 -3.4 25.9
12:25 1015 29.97 844 24.92 24.3 75.7 17 -2.4 27.7
12:30 1015 29.97 844 24.92 24 75.3 19 -0.9 30.4
12:35 1015 29.97 844 24.92 24.3 75.8 17 -2.3 27.9
12:40 1015 29.97 844 24.92 24.4 75.9 17 -1.9 28.6
12:45 1014 29.94 844 24.92 24.4 76 18 -0.9 30.3
12:50 1014 29.94 844 24.92 24.9 76.8 19 -0.2 31.6
12:55 1014 29.94 844 24.92 24.5 76.1 19 -0.5 31.1
13:00 1014 29.94 844 24.92 24.7 76.4 18 -1.3 29.7
13:05 1014 29.94 844 24.92 24.9 76.8 17 -1.5 29.3
13:10 1014 29.94 844 24.92 24.5 76.2 18 -0.9 30.4
13:15 1014 29.94 844 24.92 25.1 77.2 16 -1.9 28.6
13:20 1014 29.94 843 24.89 25 76.9 18 -0.8 30.5
13:25 1014 29.94 843 24.89 24.9 76.8 18 -1 30.1
13:30 1014 29.94 843 24.89 25.2 77.4 17 -1.1 30
13:35 1014 29.94 843 24.89 25.5 77.9 17 -1.4 29.4
13:40 1014 29.94 843 24.89 25.7 78.3 17 -1.1 30.1
13:45 1014 29.94 843 24.89 24.8 76.7 18 -0.5 31.1
13:50 1014 29.94 843 24.89 25 77 17 -1.2 29.9
13:55 1014 29.94 843 24.89 25 77 17 -1.2 29.9
14:00 1014 29.94 843 24.89 25.2 77.4 17 -1.1 29.9
14:05 1014 29.94 843 24.89 25.6 78.2 18 -0.5 31
14:10 1014 29.94 843 24.89 25.3 77.5 19 0.6 33
14:15 1014 29.94 843 24.89 24.3 75.8 20 0 32
14:20 1014 29.94 843 24.89 24 75.3 21 0.3 32.6
14:25 1014 29.94 843 24.89 23.9 75.1 20 -0.1 31.7
14:30 1014 29.94 843 24.89 24 75.3 19 -0.5 31.1
14:35 1014 29.94 843 24.89 24.3 75.7 20 0.1 32.1
14:40 1014 29.94 843 24.89 24.4 75.9 19 -0.4 31.3
14:45 1014 29.94 843 24.89 24.1 75.4 19 -0.8 30.5
14:50 1014 29.94 843 24.89 24.1 75.4 19 -0.9 30.4
14:55 1014 29.94 843 24.89 24.9 76.9 18 -0.5 31.1
15:00 1014 29.94 843 24.89 24.9 76.8 18 -0.6 30.9
15:05 1014 29.94 843 24.89 25 76.9 18 -0.7 30.7
15:10 1014 29.94 843 24.89 25.2 77.4 18 -0.4 31.3
15:15 1014 29.94 843 24.89 25 77.1 19 -0.1 31.8
15:20 1014 29.94 843 24.89 25.3 77.6 19 0.2 32.4
15:25 1014 29.94 843 24.89 24.6 76.3 19 -0.6 30.8
15:30 1014 29.94 843 24.89 24.6 76.3 18 -1.1 30
15:35 1014 29.94 843 24.89 25 76.9 17 -1.5 29.3
15:40 1014 29.94 843 24.89 25.1 77.3 18 -0.5 31.1
15:45 1014 29.94 843 24.89 25.4 77.7 17 -1 30.1
15:50 1014 29.94 843 24.89 25.4 77.8 18 -0.3 31.5
15:55 1014 29.94 843 24.89 24.9 76.9 17 -1.4 29.4
16:00 1014 29.94 843 24.89 24.9 76.9 18 -0.6 30.9
16:05 1014 29.94 843 24.89 24.8 76.7 18 -1 30.2
16:10 1014 29.94 843 24.89 24.9 76.8 18 -0.8 30.6
16:15 1014 29.94 843 24.89 25 77 18 -1.1 30.1
16:20 1014 29.94 843 24.89 25.2 77.3 18 -0.2 31.6
16:25 1014 29.94 843 24.89 24.5 76 19 -0.2 31.7
16:30 1014 29.94 843 24.89 24.8 76.7 18 -0.8 30.6
16:35 1014 29.94 843 24.89 24.8 76.6 19 -0.3 31.5
16:40 1014 29.94 843 24.89 24.4 75.9 18 -1.1 30.1
16:45 1014 29.94 843 24.89 24.8 76.6 18 -0.7 30.8
16:50 1014 29.94 843 24.89 24.6 76.3 19 -0.2 31.7
16:55 1014 29.94 843 24.89 24.1 75.3 19 -0.5 31.1
17:00 1014 29.94 843 24.89 23.7 74.7 19 -0.9 30.3
17:05 1014 29.94 843 24.89 23.9 75 20 -0.4 31.3
17:10 1014 29.94 843 24.89 24.7 76.4 18 -0.7 30.7
17:15 1014 29.94 843 24.89 24.9 76.8 20 0.4 32.8
17:20 1014 29.94 843 24.89 24.4 75.9 20 0.5 32.9
17:25 1014 29.94 843 24.89 24.3 75.7 20 -0.1 31.8
17:30 1014 29.94 843 24.89 24.6 76.2 20 0.3 32.5
17:35 1014 29.94 843 24.89 24.6 76.2 20 0.3 32.5
17:40 1014 29.94 843 24.89 24 75.3 20 0.3 32.5
17:45 1014 29.94 843 24.89 23.6 74.4 21 -0 31.9
17:50 1014 29.94 843 24.89 23.4 74.1 20 -0.3 31.4
17:55 1014 29.94 843 24.89 23.6 74.4 19 -1.3 29.7
18:00 1013 29.91 843 24.89 23.9 75.1 19 -0.9 30.4
18:05 1013 29.91 843 24.89 23.7 74.6 20 -0.5 31
18:10 1014 29.94 843 24.89 23.5 74.4 21 -0 32
18:15 1014 29.94 843 24.89 23.6 74.5 21 0.5 32.9
18:20 1014 29.94 843 24.89 23.2 73.7 22 0.7 33.2
18:25 1014 29.94 843 24.89 23.2 73.7 22 0.3 32.6
18:30 1014 29.94 843 24.89 23.2 73.8 21 0 32
18:35 1014 29.94 843 24.89 23.3 74 21 -0.1 31.8
18:40 1014 29.94 843 24.89 23.3 73.9 21 -0 32
18:45 1014 29.94 843 24.89 23.1 73.5 21 -0.2 31.7
18:50 1014 29.94 843 24.89 22.9 73.2 21 -0.4 31.4
18:55 1014 29.94 843 24.89 22.8 73 21 -0.4 31.3
19:00 1014 29.94 843 24.89 22.7 72.8 21 -0.3 31.5
19:05 1014 29.94 843 24.89 22.5 72.6 22 -0.2 31.7
19:10 1014 29.94 843 24.89 22.5 72.4 22 -0.1 31.9
19:15 1014 29.94 843 24.89 22.4 72.4 24 0.9 33.7
19:20 1014 29.94 843 24.89 22.3 72.2 23 0.5 32.9
19:25 1014 29.94 843 24.89 22.1 71.9 24 0.6 33.1
19:30 1014 29.94 843 24.89 22 71.5 25 1 33.7
19:35 1014 29.94 843 24.89 21.8 71.2 25 1 33.9
19:40 1014 29.94 843 24.89 21.7 71 27 2 35.6
19:45 1014 29.94 843 24.89 21.3 70.3 29 2.5 36.6
19:50 1014 29.94 843 24.89 20.9 69.6 30 3 37.3
19:55 1014 29.94 843 24.89 20.7 69.3 29 2.4 36.3
20:00 1014 29.94 843 24.89 20.6 69 28 1.7 35.1
20:05 1014 29.94 843 24.89 20.5 68.9 28 1.8 35.2
20:10 1014 29.94 843 24.89 20.4 68.8 28 1.3 34.4
20:15 1014 29.94 844 24.92 20.3 68.6 27 1.1 34.1
20:20 1014 29.94 844 24.92 20.3 68.6 27 0.7 33.2
20:25 1015 29.97 844 24.92 20.2 68.4 26 0.1 32.1
20:30 1015 29.97 844 24.92 20.1 68.1 26 0.3 32.5
20:35 1015 29.97 844 24.92 19.9 67.8 26 0.1 32.1
20:40 1015 29.97 844 24.92 19.9 67.7 27 0.4 32.7
20:45 1015 29.97 844 24.92 19.8 67.6 27 0.5 32.9
20:50 1015 29.97 844 24.92 19.7 67.5 27 0.1 32.3
20:55 1015 29.97 844 24.92 19.6 67.3 26 -0.1 31.8
21:00 1015 29.97 844 24.92 19.6 67.2 27 0.2 32.3
21:05 1015 29.97 844 24.92 19.5 67.2 28 0.5 32.9
21:10 1015 29.97 844 24.92 19.5 67 27 -0.1 31.8
21:15 1015 29.97 844 24.92 19.3 66.8 30 1.4 34.5
21:20 1015 29.97 845 24.95 18.9 66.1 34 2.9 37.3
21:25 1016 30 845 24.95 17.8 64 46 6.2 43.1
21:30 1016 30 845 24.95 17.1 62.7 45 5.1 41.2
21:35 1016 30 845 24.95 17.1 62.8 43 4.7 40.5
21:40 1015 29.97 845 24.95 17.1 62.8 48 6.1 43
21:45 1016 30 845 24.95 16.7 62 50 6.4 43.6
21:50 1016 30 845 24.95 16.6 61.9 43 4.1 39.5
21:55 1016 30 845 24.95 16.8 62.2 48 5.9 42.6
22:00 1016 30 845 24.95 16.4 61.6 50 6.1 43
22:05 1016 30 845 24.95 16.3 61.3 50 6 42.8
22:10 1016 30 845 24.95 16.3 61.3 46 4.9 40.7
22:15 1016 30 845 24.95 16.3 61.3 49 5.6 42.1
22:20 1016 30 845 24.95 16.1 61 50 5.8 42.5
22:25 1016 30 845 24.95 15.8 60.4 49 5.1 41.2
22:30 1016 30 845 24.95 15.8 60.4 47 4.5 40.2
22:35 1016 30 845 24.95 16 60.9 46 4.4 40
22:40 1016 30 845 24.95 16 60.8 48 5.2 41.4
22:45 1016 30 845 24.95 15.5 59.9 47 4.4 40
22:50 1016 30 845 24.95 15.7 60.2 47 4.6 40.3
22:55 1016 30 845 24.95 15.6 60.1 47 4.4 39.8
23:00 1016 30 845 24.95 15.6 60.1 47 4.4 40
23:05 1016 30 845 24.95 15.8 60.4 46 4.4 39.9
23:10 1016 30 845 24.95 15.7 60.3 47 4.5 40.1
23:15 1016 30 845 24.95 15.3 59.6 50 5 41
23:20 1016 30 845 24.95 15 58.9 49 4.5 40.2
23:25 1016 30 845 24.95 15 59 49 4.5 40
23:30 1016 30 845 24.95 14.9 58.8 53 5.6 42
23:35 1016 30 845 24.95 14.4 57.9 51 4.6 40.2
23:40 1016 30 845 24.95 14.5 58.1 50 4.4 40
23:45 1016 30 845 24.95 14.6 58.2 54 5.4 41.8
23:50 1016 30 845 24.95 14.6 58.2 50 4.4 39.8
23:55 1016 30 845 24.95 14.6 58.2 51 4.6 40.3
24:00 1016 30 845 24.95 14.4 58 50 4.2 39.6